sensor_id;sensor_type;location;lat;lon;timestamp;temperature;humidity
60473;DHT22;46318;52.716;6.444;2022-09-09T00:02:18;15.40;99.90
60473;DHT22;46318;52.716;6.444;2022-09-09T00:05:14;15.40;99.90
60473;DHT22;46318;52.716;6.444;2022-09-09T00:07:58;15.40;99.90
60473;DHT22;46318;52.716;6.444;2022-09-09T00:10:30;15.40;99.90
60473;DHT22;46318;52.716;6.444;2022-09-09T00:13:32;15.40;99.90
60473;DHT22;46318;52.716;6.444;2022-09-09T00:22:06;15.30;99.90
60473;DHT22;46318;52.716;6.444;2022-09-09T00:24:44;15.30;99.90
60473;DHT22;46318;52.716;6.444;2022-09-09T00:27:35;15.30;99.90
60473;DHT22;46318;52.716;6.444;2022-09-09T00:32:49;15.20;99.90
60473;DHT22;46318;52.716;6.444;2022-09-09T00:35:39;15.20;99.90
60473;DHT22;46318;52.716;6.444;2022-09-09T00:38:14;15.20;99.90
60473;DHT22;46318;52.716;6.444;2022-09-09T00:40:58;15.20;99.90
60473;DHT22;46318;52.716;6.444;2022-09-09T00:43:46;15.20;99.90
60473;DHT22;46318;52.716;6.444;2022-09-09T00:55:10;15.10;99.90
60473;DHT22;46318;52.716;6.444;2022-09-09T00:57:41;15.10;99.90
60473;DHT22;46318;52.716;6.444;2022-09-09T01:00:42;15.10;99.90
60473;DHT22;46318;52.716;6.444;2022-09-09T01:06:20;15.10;99.90
60473;DHT22;46318;52.716;6.444;2022-09-09T01:09:00;15.10;99.90
60473;DHT22;46318;52.716;6.444;2022-09-09T01:12:09;15.10;99.90
60473;DHT22;46318;52.716;6.444;2022-09-09T01:15:08;15.10;99.90
60473;DHT22;46318;52.716;6.444;2022-09-09T01:18:00;15.10;99.90
60473;DHT22;46318;52.716;6.444;2022-09-09T01:28:52;15.10;99.90
60473;DHT22;46318;52.716;6.444;2022-09-09T01:31:38;15.10;99.90
60473;DHT22;46318;52.716;6.444;2022-09-09T01:34:11;15.10;99.90
60473;DHT22;46318;52.716;6.444;2022-09-09T01:36:39;15.10;99.90
60473;DHT22;46318;52.716;6.444;2022-09-09T01:39:08;15.10;99.90
60473;DHT22;46318;52.716;6.444;2022-09-09T01:41:34;15.10;99.90
60473;DHT22;46318;52.716;6.444;2022-09-09T01:44:00;15.20;99.90
60473;DHT22;46318;52.716;6.444;2022-09-09T01:46:26;15.20;99.90
60473;DHT22;46318;52.716;6.444;2022-09-09T01:49:12;15.10;99.90
60473;DHT22;46318;52.716;6.444;2022-09-09T01:51:59;15.20;99.90
60473;DHT22;46318;52.716;6.444;2022-09-09T01:54:43;15.20;99.90
60473;DHT22;46318;52.716;6.444;2022-09-09T02:02:44;15.20;99.90
60473;DHT22;46318;52.716;6.444;2022-09-09T02:05:39;15.20;99.90
60473;DHT22;46318;52.716;6.444;2022-09-09T02:08:20;15.20;99.90
60473;DHT22;46318;52.716;6.444;2022-09-09T02:10:58;15.20;99.90
60473;DHT22;46318;52.716;6.444;2022-09-09T02:13:29;15.20;99.90
60473;DHT22;46318;52.716;6.444;2022-09-09T02:16:08;15.20;99.90
60473;DHT22;46318;52.716;6.444;2022-09-09T02:18:55;15.20;99.90
60473;DHT22;46318;52.716;6.444;2022-09-09T02:21:31;15.20;99.90
60473;DHT22;46318;52.716;6.444;2022-09-09T02:24:02;15.20;99.90
60473;DHT22;46318;52.716;6.444;2022-09-09T02:26:31;15.20;99.90
60473;DHT22;46318;52.716;6.444;2022-09-09T02:29:02;15.20;99.90
60473;DHT22;46318;52.716;6.444;2022-09-09T02:31:32;15.20;99.90
60473;DHT22;46318;52.716;6.444;2022-09-09T02:34:01;15.20;99.90
60473;DHT22;46318;52.716;6.444;2022-09-09T02:36:31;15.20;99.90
60473;DHT22;46318;52.716;6.444;2022-09-09T02:38:59;15.20;99.90
60473;DHT22;46318;52.716;6.444;2022-09-09T02:44:20;15.20;99.90
60473;DHT22;46318;52.716;6.444;2022-09-09T02:47:05;15.20;99.90
60473;DHT22;46318;52.716;6.444;2022-09-09T02:56:04;15.20;99.90
60473;DHT22;46318;52.716;6.444;2022-09-09T02:58:32;15.10;99.90
60473;DHT22;46318;52.716;6.444;2022-09-09T03:00:58;15.10;99.90
60473;DHT22;46318;52.716;6.444;2022-09-09T03:03:26;15.10;99.90
60473;DHT22;46318;52.716;6.444;2022-09-09T03:05:52;15.10;99.90
60473;DHT22;46318;52.716;6.444;2022-09-09T03:08:18;15.10;99.90
60473;DHT22;46318;52.716;6.444;2022-09-09T03:10:43;15.10;99.90
60473;DHT22;46318;52.716;6.444;2022-09-09T03:13:10;15.10;99.90
60473;DHT22;46318;52.716;6.444;2022-09-09T03:15:38;15.10;99.90
60473;DHT22;46318;52.716;6.444;2022-09-09T03:18:03;15.10;99.90
60473;DHT22;46318;52.716;6.444;2022-09-09T03:20:30;15.10;99.90
60473;DHT22;46318;52.716;6.444;2022-09-09T03:22:56;15.10;99.90
60473;DHT22;46318;52.716;6.444;2022-09-09T03:25:23;15.10;99.90
60473;DHT22;46318;52.716;6.444;2022-09-09T03:27:49;15.10;99.90
60473;DHT22;46318;52.716;6.444;2022-09-09T03:30:18;15.10;99.90
60473;DHT22;46318;52.716;6.444;2022-09-09T03:32:44;15.10;99.90
60473;DHT22;46318;52.716;6.444;2022-09-09T03:35:10;15.10;99.90
60473;DHT22;46318;52.716;6.444;2022-09-09T03:37:35;15.10;99.90
60473;DHT22;46318;52.716;6.444;2022-09-09T03:40:01;15.10;99.90
60473;DHT22;46318;52.716;6.444;2022-09-09T03:42:27;15.00;99.90
60473;DHT22;46318;52.716;6.444;2022-09-09T03:44:53;15.00;99.90
60473;DHT22;46318;52.716;6.444;2022-09-09T03:47:21;15.10;99.90
60473;DHT22;46318;52.716;6.444;2022-09-09T03:49:47;15.00;99.90
60473;DHT22;46318;52.716;6.444;2022-09-09T03:52:14;15.00;99.90
60473;DHT22;46318;52.716;6.444;2022-09-09T03:54:41;15.00;99.90
60473;DHT22;46318;52.716;6.444;2022-09-09T03:57:11;15.00;99.90
60473;DHT22;46318;52.716;6.444;2022-09-09T03:59:37;15.00;99.90
60473;DHT22;46318;52.716;6.444;2022-09-09T04:02:04;15.00;99.90
60473;DHT22;46318;52.716;6.444;2022-09-09T04:04:29;15.00;99.90
60473;DHT22;46318;52.716;6.444;2022-09-09T04:06:55;15.00;99.90
60473;DHT22;46318;52.716;6.444;2022-09-09T04:09:21;15.00;99.90
60473;DHT22;46318;52.716;6.444;2022-09-09T04:11:47;15.00;99.90
60473;DHT22;46318;52.716;6.444;2022-09-09T04:14:12;15.00;99.90
60473;DHT22;46318;52.716;6.444;2022-09-09T04:16:38;15.00;99.90
60473;DHT22;46318;52.716;6.444;2022-09-09T04:19:04;15.00;99.90
60473;DHT22;46318;52.716;6.444;2022-09-09T04:21:32;14.90;99.90
60473;DHT22;46318;52.716;6.444;2022-09-09T04:23:57;14.90;99.90
60473;DHT22;46318;52.716;6.444;2022-09-09T04:26:23;14.90;99.90
60473;DHT22;46318;52.716;6.444;2022-09-09T04:28:49;14.90;99.90
60473;DHT22;46318;52.716;6.444;2022-09-09T04:31:21;14.90;99.90
60473;DHT22;46318;52.716;6.444;2022-09-09T04:33:49;14.90;99.90
60473;DHT22;46318;52.716;6.444;2022-09-09T04:36:16;14.80;99.90
60473;DHT22;46318;52.716;6.444;2022-09-09T04:38:45;14.80;99.90
60473;DHT22;46318;52.716;6.444;2022-09-09T04:41:11;14.80;99.90
60473;DHT22;46318;52.716;6.444;2022-09-09T04:43:39;14.80;99.90
60473;DHT22;46318;52.716;6.444;2022-09-09T04:46:05;14.80;99.90
60473;DHT22;46318;52.716;6.444;2022-09-09T04:48:31;14.80;99.90
60473;DHT22;46318;52.716;6.444;2022-09-09T04:51:03;14.80;99.90
60473;DHT22;46318;52.716;6.444;2022-09-09T04:53:30;14.80;99.90
60473;DHT22;46318;52.716;6.444;2022-09-09T04:58:37;14.70;99.90
60473;DHT22;46318;52.716;6.444;2022-09-09T05:01:15;14.70;99.90
60473;DHT22;46318;52.716;6.444;2022-09-09T05:03:43;14.70;99.90
60473;DHT22;46318;52.716;6.444;2022-09-09T05:06:20;14.70;99.90
60473;DHT22;46318;52.716;6.444;2022-09-09T05:08:47;14.70;99.90
60473;DHT22;46318;52.716;6.444;2022-09-09T05:11:27;14.60;99.90
60473;DHT22;46318;52.716;6.444;2022-09-09T05:13:55;14.60;99.90
60473;DHT22;46318;52.716;6.444;2022-09-09T05:16:24;14.60;99.90
60473;DHT22;46318;52.716;6.444;2022-09-09T05:18:50;14.60;99.90
60473;DHT22;46318;52.716;6.444;2022-09-09T05:21:17;14.60;99.90
60473;DHT22;46318;52.716;6.444;2022-09-09T05:23:45;14.60;99.90
60473;DHT22;46318;52.716;6.444;2022-09-09T05:26:14;14.50;99.90
60473;DHT22;46318;52.716;6.444;2022-09-09T05:28:41;14.50;99.90
60473;DHT22;46318;52.716;6.444;2022-09-09T05:31:09;14.50;99.90
60473;DHT22;46318;52.716;6.444;2022-09-09T05:33:37;14.50;99.90
60473;DHT22;46318;52.716;6.444;2022-09-09T05:36:08;14.50;99.90
60473;DHT22;46318;52.716;6.444;2022-09-09T05:38:41;14.50;99.90
60473;DHT22;46318;52.716;6.444;2022-09-09T05:41:07;14.50;99.90
60473;DHT22;46318;52.716;6.444;2022-09-09T05:43:33;14.50;99.90
60473;DHT22;46318;52.716;6.444;2022-09-09T05:46:15;14.50;99.90
60473;DHT22;46318;52.716;6.444;2022-09-09T05:48:44;14.50;99.90
60473;DHT22;46318;52.716;6.444;2022-09-09T05:51:14;14.50;99.90
60473;DHT22;46318;52.716;6.444;2022-09-09T05:53:42;14.50;99.90
60473;DHT22;46318;52.716;6.444;2022-09-09T05:56:12;14.50;99.90
60473;DHT22;46318;52.716;6.444;2022-09-09T05:58:39;14.60;99.90
60473;DHT22;46318;52.716;6.444;2022-09-09T06:03:47;14.60;99.90
60473;DHT22;46318;52.716;6.444;2022-09-09T06:06:16;14.60;99.90
60473;DHT22;46318;52.716;6.444;2022-09-09T06:08:53;14.60;99.90
60473;DHT22;46318;52.716;6.444;2022-09-09T06:11:25;14.60;99.90
60473;DHT22;46318;52.716;6.444;2022-09-09T06:13:52;14.60;99.90
60473;DHT22;46318;52.716;6.444;2022-09-09T06:16:22;14.60;99.90
60473;DHT22;46318;52.716;6.444;2022-09-09T06:18:50;14.60;99.90
60473;DHT22;46318;52.716;6.444;2022-09-09T06:21:21;14.60;99.90
60473;DHT22;46318;52.716;6.444;2022-09-09T06:23:50;14.60;99.90
60473;DHT22;46318;52.716;6.444;2022-09-09T06:26:26;14.70;99.90
60473;DHT22;46318;52.716;6.444;2022-09-09T06:28:53;14.60;99.90
60473;DHT22;46318;52.716;6.444;2022-09-09T06:31:24;14.70;99.90
60473;DHT22;46318;52.716;6.444;2022-09-09T06:33:53;14.70;99.90
60473;DHT22;46318;52.716;6.444;2022-09-09T06:36:34;14.60;99.90
60473;DHT22;46318;52.716;6.444;2022-09-09T06:39:02;14.70;99.90
60473;DHT22;46318;52.716;6.444;2022-09-09T06:41:31;14.70;99.90
60473;DHT22;46318;52.716;6.444;2022-09-09T06:43:58;14.70;99.90
60473;DHT22;46318;52.716;6.444;2022-09-09T06:46:26;14.70;99.90
60473;DHT22;46318;52.716;6.444;2022-09-09T06:48:53;14.80;99.90
60473;DHT22;46318;52.716;6.444;2022-09-09T06:51:22;14.80;99.90
60473;DHT22;46318;52.716;6.444;2022-09-09T06:53:53;14.80;99.90
60473;DHT22;46318;52.716;6.444;2022-09-09T06:56:30;14.80;99.90
60473;DHT22;46318;52.716;6.444;2022-09-09T06:58:59;14.80;99.90
60473;DHT22;46318;52.716;6.444;2022-09-09T07:01:34;14.90;99.90
60473;DHT22;46318;52.716;6.444;2022-09-09T07:04:02;14.90;99.90
60473;DHT22;46318;52.716;6.444;2022-09-09T07:06:34;15.00;99.90
60473;DHT22;46318;52.716;6.444;2022-09-09T07:09:02;15.00;99.90
60473;DHT22;46318;52.716;6.444;2022-09-09T07:11:37;15.00;99.90
60473;DHT22;46318;52.716;6.444;2022-09-09T07:14:08;15.10;99.90
60473;DHT22;46318;52.716;6.444;2022-09-09T07:16:34;15.10;99.90
60473;DHT22;46318;52.716;6.444;2022-09-09T07:19:03;15.20;99.90
60473;DHT22;46318;52.716;6.444;2022-09-09T07:21:30;15.30;99.90
60473;DHT22;46318;52.716;6.444;2022-09-09T07:23:57;15.40;99.90
60473;DHT22;46318;52.716;6.444;2022-09-09T07:26:25;15.40;99.90
60473;DHT22;46318;52.716;6.444;2022-09-09T07:28:53;15.50;99.90
60473;DHT22;46318;52.716;6.444;2022-09-09T07:31:26;15.50;99.90
60473;DHT22;46318;52.716;6.444;2022-09-09T07:33:55;15.60;99.90
60473;DHT22;46318;52.716;6.444;2022-09-09T07:36:24;15.70;99.90
60473;DHT22;46318;52.716;6.444;2022-09-09T07:39:06;15.70;99.90
60473;DHT22;46318;52.716;6.444;2022-09-09T07:41:39;15.80;99.90
60473;DHT22;46318;52.716;6.444;2022-09-09T07:44:08;15.90;99.90
60473;DHT22;46318;52.716;6.444;2022-09-09T07:46:42;15.90;99.90
60473;DHT22;46318;52.716;6.444;2022-09-09T07:49:09;16.00;99.90
60473;DHT22;46318;52.716;6.444;2022-09-09T07:51:38;16.00;99.90
60473;DHT22;46318;52.716;6.444;2022-09-09T07:54:11;16.10;99.90
60473;DHT22;46318;52.716;6.444;2022-09-09T07:56:39;16.10;99.90
60473;DHT22;46318;52.716;6.444;2022-09-09T07:59:06;16.10;99.90
60473;DHT22;46318;52.716;6.444;2022-09-09T08:01:39;16.10;99.90
60473;DHT22;46318;52.716;6.444;2022-09-09T08:04:12;16.20;99.90
60473;DHT22;46318;52.716;6.444;2022-09-09T08:06:43;16.20;99.90
60473;DHT22;46318;52.716;6.444;2022-09-09T08:09:11;16.30;99.90
60473;DHT22;46318;52.716;6.444;2022-09-09T08:11:39;16.30;99.90
60473;DHT22;46318;52.716;6.444;2022-09-09T08:14:07;16.40;99.90
60473;DHT22;46318;52.716;6.444;2022-09-09T08:16:35;16.40;99.90
60473;DHT22;46318;52.716;6.444;2022-09-09T08:19:04;16.40;99.90
60473;DHT22;46318;52.716;6.444;2022-09-09T08:21:32;16.50;99.90
60473;DHT22;46318;52.716;6.444;2022-09-09T08:24:00;16.60;99.90
60473;DHT22;46318;52.716;6.444;2022-09-09T08:26:35;16.60;99.90
60473;DHT22;46318;52.716;6.444;2022-09-09T08:29:05;16.70;99.90
60473;DHT22;46318;52.716;6.444;2022-09-09T08:31:40;16.70;99.90
60473;DHT22;46318;52.716;6.444;2022-09-09T08:34:07;16.80;99.90
60473;DHT22;46318;52.716;6.444;2022-09-09T08:36:43;16.80;99.90
60473;DHT22;46318;52.716;6.444;2022-09-09T08:39:11;16.90;99.90
60473;DHT22;46318;52.716;6.444;2022-09-09T08:48:16;17.20;99.90
60473;DHT22;46318;52.716;6.444;2022-09-09T08:50:43;17.20;99.90
60473;DHT22;46318;52.716;6.444;2022-09-09T08:58:33;17.30;99.90
60473;DHT22;46318;52.716;6.444;2022-09-09T09:04:43;17.40;99.90
60473;DHT22;46318;52.716;6.444;2022-09-09T09:10:45;17.70;99.90
60473;DHT22;46318;52.716;6.444;2022-09-09T09:13:32;17.80;99.90
60473;DHT22;46318;52.716;6.444;2022-09-09T09:16:29;17.90;99.90
60473;DHT22;46318;52.716;6.444;2022-09-09T09:18:58;18.00;99.90
60473;DHT22;46318;52.716;6.444;2022-09-09T09:27:54;18.00;99.90
60473;DHT22;46318;52.716;6.444;2022-09-09T09:30:31;18.10;99.90
60473;DHT22;46318;52.716;6.444;2022-09-09T09:35:52;18.10;99.90
60473;DHT22;46318;52.716;6.444;2022-09-09T09:38:27;18.20;99.90
60473;DHT22;46318;52.716;6.444;2022-09-09T09:40:55;18.20;99.90
60473;DHT22;46318;52.716;6.444;2022-09-09T09:43:33;18.20;99.90
60473;DHT22;46318;52.716;6.444;2022-09-09T09:46:03;18.20;99.90
60473;DHT22;46318;52.716;6.444;2022-09-09T09:48:30;18.20;99.90
60473;DHT22;46318;52.716;6.444;2022-09-09T09:53:36;18.20;99.90
60473;DHT22;46318;52.716;6.444;2022-09-09T09:56:04;18.30;99.90
60473;DHT22;46318;52.716;6.444;2022-09-09T10:01:24;18.40;99.90
60473;DHT22;46318;52.716;6.444;2022-09-09T10:03:54;18.40;99.90
60473;DHT22;46318;52.716;6.444;2022-09-09T10:06:49;18.50;99.90
60473;DHT22;46318;52.716;6.444;2022-09-09T10:09:33;18.50;99.90
60473;DHT22;46318;52.716;6.444;2022-09-09T10:12:20;18.60;99.90
60473;DHT22;46318;52.716;6.444;2022-09-09T10:15:23;18.60;99.90
60473;DHT22;46318;52.716;6.444;2022-09-09T10:18:15;18.70;99.90
60473;DHT22;46318;52.716;6.444;2022-09-09T10:23:46;18.80;99.90
60473;DHT22;46318;52.716;6.444;2022-09-09T10:27:27;18.80;99.90
60473;DHT22;46318;52.716;6.444;2022-09-09T10:38:17;18.90;99.90
60473;DHT22;46318;52.716;6.444;2022-09-09T10:55:37;18.90;99.90
60473;DHT22;46318;52.716;6.444;2022-09-09T10:58:08;18.90;99.80
60473;DHT22;46318;52.716;6.444;2022-09-09T11:00:41;19.00;99.80
60473;DHT22;46318;52.716;6.444;2022-09-09T11:03:24;19.00;99.50
60473;DHT22;46318;52.716;6.444;2022-09-09T11:05:56;19.00;99.30
60473;DHT22;46318;52.716;6.444;2022-09-09T11:08:30;19.10;99.20
60473;DHT22;46318;52.716;6.444;2022-09-09T11:16:45;19.10;99.00
60473;DHT22;46318;52.716;6.444;2022-09-09T11:19:35;19.10;98.80
60473;DHT22;46318;52.716;6.444;2022-09-09T11:25:17;19.10;98.90
60473;DHT22;46318;52.716;6.444;2022-09-09T11:31:17;19.10;98.50
60473;DHT22;46318;52.716;6.444;2022-09-09T11:37:04;19.20;98.60
60473;DHT22;46318;52.716;6.444;2022-09-09T11:42:42;19.50;98.70
60473;DHT22;46318;52.716;6.444;2022-09-09T11:45:19;19.60;98.30
60473;DHT22;46318;52.716;6.444;2022-09-09T11:48:01;19.60;97.90
60473;DHT22;46318;52.716;6.444;2022-09-09T11:50:31;19.70;98.20
60473;DHT22;46318;52.716;6.444;2022-09-09T11:53:24;19.90;97.60
60473;DHT22;46318;52.716;6.444;2022-09-09T11:58:40;20.00;95.80
60473;DHT22;46318;52.716;6.444;2022-09-09T12:01:16;20.00;96.40
60473;DHT22;46318;52.716;6.444;2022-09-09T12:06:45;20.00;96.10
60473;DHT22;46318;52.716;6.444;2022-09-09T12:09:23;20.00;96.30
60473;DHT22;46318;52.716;6.444;2022-09-09T12:17:23;20.10;96.50
60473;DHT22;46318;52.716;6.444;2022-09-09T12:20:20;20.20;96.10
60473;DHT22;46318;52.716;6.444;2022-09-09T12:29:10;20.30;95.40
60473;DHT22;46318;52.716;6.444;2022-09-09T12:34:47;20.20;96.80
60473;DHT22;46318;52.716;6.444;2022-09-09T12:37:34;20.20;97.20
60473;DHT22;46318;52.716;6.444;2022-09-09T12:40:04;20.30;97.50
60473;DHT22;46318;52.716;6.444;2022-09-09T12:42:31;20.40;97.30
60473;DHT22;46318;52.716;6.444;2022-09-09T12:45:03;20.60;97.10
60473;DHT22;46318;52.716;6.444;2022-09-09T12:47:51;20.70;96.50
60473;DHT22;46318;52.716;6.444;2022-09-09T12:50:29;20.80;96.30
60473;DHT22;46318;52.716;6.444;2022-09-09T12:53:20;20.80;95.60
60473;DHT22;46318;52.716;6.444;2022-09-09T12:56:18;20.70;95.20
60473;DHT22;46318;52.716;6.444;2022-09-09T12:58:46;20.70;95.60
60473;DHT22;46318;52.716;6.444;2022-09-09T13:01:28;20.70;95.30
60473;DHT22;46318;52.716;6.444;2022-09-09T13:03:56;20.80;95.50
60473;DHT22;46318;52.716;6.444;2022-09-09T13:06:32;20.90;94.90
60473;DHT22;46318;52.716;6.444;2022-09-09T13:09:01;21.00;94.60
60473;DHT22;46318;52.716;6.444;2022-09-09T13:13:59;21.10;94.00
60473;DHT22;46318;52.716;6.444;2022-09-09T13:16:26;21.10;93.80
60473;DHT22;46318;52.716;6.444;2022-09-09T13:19:02;21.00;93.60
60473;DHT22;46318;52.716;6.444;2022-09-09T13:21:37;20.90;93.30
60473;DHT22;46318;52.716;6.444;2022-09-09T13:24:06;20.90;93.70
60473;DHT22;46318;52.716;6.444;2022-09-09T13:26:33;20.70;94.50
60473;DHT22;46318;52.716;6.444;2022-09-09T13:29:17;20.60;95.30
60473;DHT22;46318;52.716;6.444;2022-09-09T13:31:44;20.50;95.90
60473;DHT22;46318;52.716;6.444;2022-09-09T13:34:22;20.50;96.70
60473;DHT22;46318;52.716;6.444;2022-09-09T13:37:03;20.70;97.60
60473;DHT22;46318;52.716;6.444;2022-09-09T13:39:37;20.80;97.10
60473;DHT22;46318;52.716;6.444;2022-09-09T13:42:03;20.90;96.70
60473;DHT22;46318;52.716;6.444;2022-09-09T13:44:40;20.80;96.40
60473;DHT22;46318;52.716;6.444;2022-09-09T13:47:19;20.80;96.20
60473;DHT22;46318;52.716;6.444;2022-09-09T13:49:46;20.90;96.30
60473;DHT22;46318;52.716;6.444;2022-09-09T13:52:17;21.10;96.00
60473;DHT22;46318;52.716;6.444;2022-09-09T13:54:50;21.30;94.60
60473;DHT22;46318;52.716;6.444;2022-09-09T13:57:24;21.30;94.60
60473;DHT22;46318;52.716;6.444;2022-09-09T13:59:52;21.50;94.80
60473;DHT22;46318;52.716;6.444;2022-09-09T14:02:21;21.70;93.80
60473;DHT22;46318;52.716;6.444;2022-09-09T14:04:52;21.70;93.40
60473;DHT22;46318;52.716;6.444;2022-09-09T14:07:21;21.70;93.20
60473;DHT22;46318;52.716;6.444;2022-09-09T14:09:50;21.70;92.80
60473;DHT22;46318;52.716;6.444;2022-09-09T14:12:17;21.80;92.70
60473;DHT22;46318;52.716;6.444;2022-09-09T14:14:46;21.80;92.70
60473;DHT22;46318;52.716;6.444;2022-09-09T14:17:12;21.90;92.20
60473;DHT22;46318;52.716;6.444;2022-09-09T14:19:37;22.00;92.10
60473;DHT22;46318;52.716;6.444;2022-09-09T14:22:03;22.10;92.10
60473;DHT22;46318;52.716;6.444;2022-09-09T14:24:29;22.20;92.60
60473;DHT22;46318;52.716;6.444;2022-09-09T14:26:55;22.30;91.60
60473;DHT22;46318;52.716;6.444;2022-09-09T14:29:21;22.20;91.60
60473;DHT22;46318;52.716;6.444;2022-09-09T14:31:49;22.20;91.20
60473;DHT22;46318;52.716;6.444;2022-09-09T14:34:15;22.20;91.20
60473;DHT22;46318;52.716;6.444;2022-09-09T14:36:40;22.10;91.20
60473;DHT22;46318;52.716;6.444;2022-09-09T14:39:07;22.10;90.90
60473;DHT22;46318;52.716;6.444;2022-09-09T14:41:33;22.10;90.90
60473;DHT22;46318;52.716;6.444;2022-09-09T14:43:59;22.00;91.00
60473;DHT22;46318;52.716;6.444;2022-09-09T14:46:25;22.10;91.00
60473;DHT22;46318;52.716;6.444;2022-09-09T14:48:52;22.00;90.90
60473;DHT22;46318;52.716;6.444;2022-09-09T14:51:23;21.90;90.70
60473;DHT22;46318;52.716;6.444;2022-09-09T14:53:58;21.80;90.40
60473;DHT22;46318;52.716;6.444;2022-09-09T14:56:29;21.80;90.50
60473;DHT22;46318;52.716;6.444;2022-09-09T14:58:58;21.70;90.70
60473;DHT22;46318;52.716;6.444;2022-09-09T15:01:27;21.70;91.10
60473;DHT22;46318;52.716;6.444;2022-09-09T15:03:59;21.60;91.30
60473;DHT22;46318;52.716;6.444;2022-09-09T15:06:30;21.60;91.50
60473;DHT22;46318;52.716;6.444;2022-09-09T15:08:58;21.60;91.60
60473;DHT22;46318;52.716;6.444;2022-09-09T15:11:27;21.60;91.60
60473;DHT22;46318;52.716;6.444;2022-09-09T15:13:56;21.50;91.50
60473;DHT22;46318;52.716;6.444;2022-09-09T15:16:25;21.40;91.60
60473;DHT22;46318;52.716;6.444;2022-09-09T15:18:54;21.30;91.60
60473;DHT22;46318;52.716;6.444;2022-09-09T15:21:26;21.20;91.80
60473;DHT22;46318;52.716;6.444;2022-09-09T15:23:54;21.20;92.10
60473;DHT22;46318;52.716;6.444;2022-09-09T15:26:20;21.10;92.50
60473;DHT22;46318;52.716;6.444;2022-09-09T15:28:47;21.10;92.70
60473;DHT22;46318;52.716;6.444;2022-09-09T15:31:21;21.00;92.90
60473;DHT22;46318;52.716;6.444;2022-09-09T15:33:50;21.00;93.20
60473;DHT22;46318;52.716;6.444;2022-09-09T15:36:25;20.90;93.30
60473;DHT22;46318;52.716;6.444;2022-09-09T15:38:52;20.90;93.60
60473;DHT22;46318;52.716;6.444;2022-09-09T15:41:19;20.80;94.00
60473;DHT22;46318;52.716;6.444;2022-09-09T15:43:47;20.80;94.60
60473;DHT22;46318;52.716;6.444;2022-09-09T15:46:44;20.80;95.10
60473;DHT22;46318;52.716;6.444;2022-09-09T15:49:15;20.80;95.80
60473;DHT22;46318;52.716;6.444;2022-09-09T15:51:54;20.80;95.30
60473;DHT22;46318;52.716;6.444;2022-09-09T15:54:23;20.80;95.10
60473;DHT22;46318;52.716;6.444;2022-09-09T15:56:52;20.80;95.10
60473;DHT22;46318;52.716;6.444;2022-09-09T15:59:22;20.70;95.00
60473;DHT22;46318;52.716;6.444;2022-09-09T16:01:49;20.70;94.90
60473;DHT22;46318;52.716;6.444;2022-09-09T16:04:18;20.80;94.90
60473;DHT22;46318;52.716;6.444;2022-09-09T16:07:04;20.70;95.10
60473;DHT22;46318;52.716;6.444;2022-09-09T16:09:31;20.70;94.90
60473;DHT22;46318;52.716;6.444;2022-09-09T16:11:58;20.70;95.00
60473;DHT22;46318;52.716;6.444;2022-09-09T16:14:26;20.70;95.10
60473;DHT22;46318;52.716;6.444;2022-09-09T16:16:52;20.70;94.90
60473;DHT22;46318;52.716;6.444;2022-09-09T16:19:18;20.60;94.90
60473;DHT22;46318;52.716;6.444;2022-09-09T16:21:46;20.60;94.90
60473;DHT22;46318;52.716;6.444;2022-09-09T16:24:18;20.60;95.00
60473;DHT22;46318;52.716;6.444;2022-09-09T16:26:47;20.50;95.00
60473;DHT22;46318;52.716;6.444;2022-09-09T16:29:15;20.50;95.00
60473;DHT22;46318;52.716;6.444;2022-09-09T16:31:43;20.50;95.20
60473;DHT22;46318;52.716;6.444;2022-09-09T16:34:13;20.50;95.30
60473;DHT22;46318;52.716;6.444;2022-09-09T16:36:41;20.50;95.40
60473;DHT22;46318;52.716;6.444;2022-09-09T16:39:15;20.50;95.50
60473;DHT22;46318;52.716;6.444;2022-09-09T16:41:44;20.40;95.60
60473;DHT22;46318;52.716;6.444;2022-09-09T16:44:12;20.40;95.70
60473;DHT22;46318;52.716;6.444;2022-09-09T16:46:42;20.40;95.90
60473;DHT22;46318;52.716;6.444;2022-09-09T16:49:10;20.30;95.80
60473;DHT22;46318;52.716;6.444;2022-09-09T16:51:40;20.30;96.00
60473;DHT22;46318;52.716;6.444;2022-09-09T16:54:08;20.30;96.00
60473;DHT22;46318;52.716;6.444;2022-09-09T16:56:37;20.30;96.10
60473;DHT22;46318;52.716;6.444;2022-09-09T16:59:16;20.30;96.00
60473;DHT22;46318;52.716;6.444;2022-09-09T17:01:45;20.20;95.90
60473;DHT22;46318;52.716;6.444;2022-09-09T17:04:25;20.20;95.90
60473;DHT22;46318;52.716;6.444;2022-09-09T17:06:53;20.10;95.90
60473;DHT22;46318;52.716;6.444;2022-09-09T17:09:20;20.10;96.00
60473;DHT22;46318;52.716;6.444;2022-09-09T17:11:48;20.00;96.10
60473;DHT22;46318;52.716;6.444;2022-09-09T17:14:17;20.00;96.10
60473;DHT22;46318;52.716;6.444;2022-09-09T17:16:44;20.00;96.10
60473;DHT22;46318;52.716;6.444;2022-09-09T17:19:11;19.90;96.20
60473;DHT22;46318;52.716;6.444;2022-09-09T17:21:37;19.90;96.30
60473;DHT22;46318;52.716;6.444;2022-09-09T17:24:03;19.90;96.30
60473;DHT22;46318;52.716;6.444;2022-09-09T17:26:31;19.80;96.40
60473;DHT22;46318;52.716;6.444;2022-09-09T17:28:59;19.80;96.40
60473;DHT22;46318;52.716;6.444;2022-09-09T17:31:27;19.80;96.50
60473;DHT22;46318;52.716;6.444;2022-09-09T17:33:54;19.80;96.60
60473;DHT22;46318;52.716;6.444;2022-09-09T17:36:26;19.80;96.60
60473;DHT22;46318;52.716;6.444;2022-09-09T17:38:54;19.70;96.60
60473;DHT22;46318;52.716;6.444;2022-09-09T17:41:22;19.70;96.60
60473;DHT22;46318;52.716;6.444;2022-09-09T17:43:50;19.70;96.70
60473;DHT22;46318;52.716;6.444;2022-09-09T17:46:19;19.60;96.90
60473;DHT22;46318;52.716;6.444;2022-09-09T17:48:48;19.60;97.00
60473;DHT22;46318;52.716;6.444;2022-09-09T17:51:18;19.60;97.20
60473;DHT22;46318;52.716;6.444;2022-09-09T17:53:53;19.60;97.30
60473;DHT22;46318;52.716;6.444;2022-09-09T17:56:24;19.50;97.60
60473;DHT22;46318;52.716;6.444;2022-09-09T17:58:52;19.50;97.80
60473;DHT22;46318;52.716;6.444;2022-09-09T18:01:28;19.40;98.20
60473;DHT22;46318;52.716;6.444;2022-09-09T18:03:57;19.40;98.90
60473;DHT22;46318;52.716;6.444;2022-09-09T18:06:28;19.40;99.00
60473;DHT22;46318;52.716;6.444;2022-09-09T18:09:00;19.40;99.50
60473;DHT22;46318;52.716;6.444;2022-09-09T18:11:32;19.30;99.70
60473;DHT22;46318;52.716;6.444;2022-09-09T18:14:01;19.30;99.90
60473;DHT22;46318;52.716;6.444;2022-09-09T18:16:30;19.30;99.90
60473;DHT22;46318;52.716;6.444;2022-09-09T18:19:01;19.20;99.90
60473;DHT22;46318;52.716;6.444;2022-09-09T18:21:30;19.20;99.90
60473;DHT22;46318;52.716;6.444;2022-09-09T18:23:59;19.20;99.90
60473;DHT22;46318;52.716;6.444;2022-09-09T18:26:27;19.20;99.90
60473;DHT22;46318;52.716;6.444;2022-09-09T18:28:57;19.10;99.90
60473;DHT22;46318;52.716;6.444;2022-09-09T18:31:25;19.10;99.90